sensor_id;sensor_type;location;lat;lon;timestamp;P1;durP1;ratioP1;P2;durP2;ratioP2
41061;SDS011;26812;42.662;23.352;2023-01-30T00:00:53;16.20;;;10.48;;
41061;SDS011;26812;42.662;23.352;2023-01-30T00:03:21;16.50;;;9.75;;
41061;SDS011;26812;42.662;23.352;2023-01-30T00:05:47;13.70;;;9.05;;
41061;SDS011;26812;42.662;23.352;2023-01-30T00:08:13;16.25;;;9.88;;
41061;SDS011;26812;42.662;23.352;2023-01-30T00:10:38;16.85;;;9.57;;
41061;SDS011;26812;42.662;23.352;2023-01-30T00:13:04;21.20;;;10.25;;
41061;SDS011;26812;42.662;23.352;2023-01-30T00:15:29;18.23;;;10.18;;
41061;SDS011;26812;42.662;23.352;2023-01-30T00:17:55;22.45;;;10.65;;
41061;SDS011;26812;42.662;23.352;2023-01-30T00:20:35;14.82;;;10.43;;
41061;SDS011;26812;42.662;23.352;2023-01-30T00:23:07;19.25;;;10.73;;
41061;SDS011;26812;42.662;23.352;2023-01-30T00:25:33;19.60;;;10.82;;
41061;SDS011;26812;42.662;23.352;2023-01-30T00:27:59;16.63;;;10.10;;
41061;SDS011;26812;42.662;23.352;2023-01-30T00:30:28;21.00;;;10.48;;
41061;SDS011;26812;42.662;23.352;2023-01-30T00:32:55;18.20;;;9.90;;
41061;SDS011;26812;42.662;23.352;2023-01-30T00:35:21;20.63;;;10.73;;
41061;SDS011;26812;42.662;23.352;2023-01-30T00:37:46;17.98;;;11.07;;
41061;SDS011;26812;42.662;23.352;2023-01-30T00:40:12;17.70;;;11.82;;
41061;SDS011;26812;42.662;23.352;2023-01-30T00:42:40;19.33;;;12.63;;
41061;SDS011;26812;42.662;23.352;2023-01-30T00:45:39;23.70;;;11.23;;
41061;SDS011;26812;42.662;23.352;2023-01-30T00:48:26;19.00;;;10.43;;
41061;SDS011;26812;42.662;23.352;2023-01-30T00:50:52;20.02;;;10.52;;
41061;SDS011;26812;42.662;23.352;2023-01-30T00:53:17;20.38;;;11.18;;
41061;SDS011;26812;42.662;23.352;2023-01-30T00:55:43;19.20;;;10.40;;
41061;SDS011;26812;42.662;23.352;2023-01-30T00:58:09;19.45;;;10.23;;
41061;SDS011;26812;42.662;23.352;2023-01-30T01:00:36;17.27;;;10.20;;
41061;SDS011;26812;42.662;23.352;2023-01-30T01:03:02;14.75;;;9.55;;
41061;SDS011;26812;42.662;23.352;2023-01-30T01:05:28;18.15;;;10.27;;
41061;SDS011;26812;42.662;23.352;2023-01-30T01:07:53;17.58;;;10.10;;
41061;SDS011;26812;42.662;23.352;2023-01-30T01:10:20;18.50;;;10.00;;
41061;SDS011;26812;42.662;23.352;2023-01-30T01:12:46;18.38;;;10.07;;
41061;SDS011;26812;42.662;23.352;2023-01-30T01:15:14;15.18;;;10.70;;
41061;SDS011;26812;42.662;23.352;2023-01-30T01:17:39;16.58;;;9.15;;
41061;SDS011;26812;42.662;23.352;2023-01-30T01:20:06;16.17;;;10.18;;
41061;SDS011;26812;42.662;23.352;2023-01-30T01:22:32;16.20;;;10.85;;
41061;SDS011;26812;42.662;23.352;2023-01-30T01:24:58;15.30;;;9.90;;
41061;SDS011;26812;42.662;23.352;2023-01-30T01:27:23;19.17;;;10.35;;
41061;SDS011;26812;42.662;23.352;2023-01-30T01:29:49;16.25;;;9.98;;
41061;SDS011;26812;42.662;23.352;2023-01-30T01:32:14;17.55;;;10.20;;
41061;SDS011;26812;42.662;23.352;2023-01-30T01:34:40;18.75;;;10.13;;
41061;SDS011;26812;42.662;23.352;2023-01-30T01:37:05;15.00;;;9.43;;
41061;SDS011;26812;42.662;23.352;2023-01-30T01:39:31;19.35;;;10.05;;
41061;SDS011;26812;42.662;23.352;2023-01-30T01:42:15;18.95;;;9.77;;
41061;SDS011;26812;42.662;23.352;2023-01-30T01:47:42;16.25;;;9.32;;
41061;SDS011;26812;42.662;23.352;2023-01-30T01:50:14;18.30;;;10.35;;
41061;SDS011;26812;42.662;23.352;2023-01-30T01:52:46;17.58;;;9.80;;
41061;SDS011;26812;42.662;23.352;2023-01-30T01:55:15;14.63;;;8.73;;
41061;SDS011;26812;42.662;23.352;2023-01-30T01:57:43;13.43;;;8.88;;
41061;SDS011;26812;42.662;23.352;2023-01-30T02:00:14;18.05;;;9.95;;
41061;SDS011;26812;42.662;23.352;2023-01-30T02:02:46;15.73;;;9.48;;
41061;SDS011;26812;42.662;23.352;2023-01-30T02:05:16;17.98;;;10.57;;
41061;SDS011;26812;42.662;23.352;2023-01-30T02:07:47;16.38;;;9.48;;
41061;SDS011;26812;42.662;23.352;2023-01-30T02:10:22;14.00;;;9.38;;
41061;SDS011;26812;42.662;23.352;2023-01-30T02:12:53;15.77;;;9.30;;
41061;SDS011;26812;42.662;23.352;2023-01-30T02:15:19;18.00;;;8.30;;
41061;SDS011;26812;42.662;23.352;2023-01-30T02:17:44;13.52;;;9.48;;
41061;SDS011;26812;42.662;23.352;2023-01-30T02:20:26;15.90;;;8.93;;
41061;SDS011;26812;42.662;23.352;2023-01-30T02:23:01;13.52;;;8.40;;
41061;SDS011;26812;42.662;23.352;2023-01-30T02:32:10;18.25;;;9.00;;
41061;SDS011;26812;42.662;23.352;2023-01-30T02:34:38;15.68;;;10.00;;
41061;SDS011;26812;42.662;23.352;2023-01-30T02:42:43;12.52;;;7.82;;
41061;SDS011;26812;42.662;23.352;2023-01-30T02:48:06;14.45;;;8.00;;
41061;SDS011;26812;42.662;23.352;2023-01-30T02:50:42;13.57;;;8.77;;
41061;SDS011;26812;42.662;23.352;2023-01-30T02:53:15;12.82;;;8.77;;
41061;SDS011;26812;42.662;23.352;2023-01-30T02:55:41;12.93;;;8.30;;
41061;SDS011;26812;42.662;23.352;2023-01-30T02:58:07;13.77;;;8.07;;
41061;SDS011;26812;42.662;23.352;2023-01-30T03:11:31;11.98;;;8.52;;
41061;SDS011;26812;42.662;23.352;2023-01-30T03:17:10;12.60;;;8.40;;
41061;SDS011;26812;42.662;23.352;2023-01-30T03:19:38;12.70;;;8.20;;
41061;SDS011;26812;42.662;23.352;2023-01-30T03:22:03;13.98;;;8.38;;
41061;SDS011;26812;42.662;23.352;2023-01-30T03:24:29;12.35;;;9.40;;
41061;SDS011;26812;42.662;23.352;2023-01-30T03:26:56;18.92;;;8.65;;
41061;SDS011;26812;42.662;23.352;2023-01-30T03:29:26;11.50;;;7.72;;
41061;SDS011;26812;42.662;23.352;2023-01-30T03:31:51;11.95;;;7.95;;
41061;SDS011;26812;42.662;23.352;2023-01-30T03:34:17;14.73;;;9.05;;
41061;SDS011;26812;42.662;23.352;2023-01-30T03:36:42;14.23;;;8.93;;
41061;SDS011;26812;42.662;23.352;2023-01-30T03:39:08;16.13;;;7.30;;
41061;SDS011;26812;42.662;23.352;2023-01-30T03:41:33;12.10;;;7.25;;
41061;SDS011;26812;42.662;23.352;2023-01-30T03:43:59;11.50;;;7.72;;
41061;SDS011;26812;42.662;23.352;2023-01-30T03:46:24;11.73;;;7.63;;
41061;SDS011;26812;42.662;23.352;2023-01-30T03:49:05;14.23;;;8.45;;
41061;SDS011;26812;42.662;23.352;2023-01-30T03:51:42;10.57;;;6.93;;
41061;SDS011;26812;42.662;23.352;2023-01-30T03:54:08;14.70;;;8.50;;
41061;SDS011;26812;42.662;23.352;2023-01-30T03:56:33;12.10;;;7.93;;
41061;SDS011;26812;42.662;23.352;2023-01-30T03:58:58;12.05;;;7.93;;
41061;SDS011;26812;42.662;23.352;2023-01-30T04:01:30;16.55;;;8.77;;
41061;SDS011;26812;42.662;23.352;2023-01-30T04:03:55;15.75;;;8.48;;
41061;SDS011;26812;42.662;23.352;2023-01-30T04:09:11;12.50;;;8.43;;
41061;SDS011;26812;42.662;23.352;2023-01-30T04:11:36;15.10;;;10.05;;
41061;SDS011;26812;42.662;23.352;2023-01-30T04:14:02;12.57;;;8.88;;
41061;SDS011;26812;42.662;23.352;2023-01-30T04:16:27;11.68;;;8.77;;
41061;SDS011;26812;42.662;23.352;2023-01-30T04:18:52;16.15;;;9.45;;
41061;SDS011;26812;42.662;23.352;2023-01-30T04:21:18;17.15;;;9.07;;
41061;SDS011;26812;42.662;23.352;2023-01-30T04:23:43;12.85;;;9.02;;
41061;SDS011;26812;42.662;23.352;2023-01-30T04:26:09;12.65;;;8.68;;
41061;SDS011;26812;42.662;23.352;2023-01-30T04:28:35;14.18;;;8.25;;
41061;SDS011;26812;42.662;23.352;2023-01-30T04:31:01;14.48;;;9.20;;
41061;SDS011;26812;42.662;23.352;2023-01-30T04:33:27;11.10;;;8.88;;
41061;SDS011;26812;42.662;23.352;2023-01-30T04:35:53;16.58;;;10.23;;
41061;SDS011;26812;42.662;23.352;2023-01-30T04:38:19;13.55;;;8.55;;
41061;SDS011;26812;42.662;23.352;2023-01-30T04:40:49;16.90;;;9.57;;
41061;SDS011;26812;42.662;23.352;2023-01-30T04:43:48;18.42;;;10.02;;
41061;SDS011;26812;42.662;23.352;2023-01-30T04:46:07;14.63;;;8.32;;
41061;SDS011;26812;42.662;23.352;2023-01-30T04:48:32;16.13;;;8.57;;
41061;SDS011;26812;42.662;23.352;2023-01-30T04:50:58;14.80;;;8.88;;
41061;SDS011;26812;42.662;23.352;2023-01-30T04:53:23;14.55;;;9.68;;
41061;SDS011;26812;42.662;23.352;2023-01-30T04:55:49;15.18;;;9.82;;
41061;SDS011;26812;42.662;23.352;2023-01-30T04:58:16;14.93;;;9.13;;
41061;SDS011;26812;42.662;23.352;2023-01-30T05:00:43;15.10;;;9.90;;
41061;SDS011;26812;42.662;23.352;2023-01-30T05:03:08;14.45;;;9.27;;
41061;SDS011;26812;42.662;23.352;2023-01-30T05:05:34;16.65;;;9.77;;
41061;SDS011;26812;42.662;23.352;2023-01-30T05:07:59;18.33;;;10.52;;
41061;SDS011;26812;42.662;23.352;2023-01-30T05:10:25;16.73;;;8.98;;
41061;SDS011;26812;42.662;23.352;2023-01-30T05:12:51;14.40;;;9.88;;
41061;SDS011;26812;42.662;23.352;2023-01-30T05:15:16;15.10;;;9.50;;
41061;SDS011;26812;42.662;23.352;2023-01-30T05:17:41;19.75;;;11.38;;
41061;SDS011;26812;42.662;23.352;2023-01-30T05:20:08;17.05;;;9.05;;
41061;SDS011;26812;42.662;23.352;2023-01-30T05:22:34;19.75;;;8.98;;
41061;SDS011;26812;42.662;23.352;2023-01-30T05:25:00;15.45;;;9.75;;
41061;SDS011;26812;42.662;23.352;2023-01-30T05:27:28;18.73;;;10.27;;
41061;SDS011;26812;42.662;23.352;2023-01-30T05:29:53;19.15;;;10.80;;
41061;SDS011;26812;42.662;23.352;2023-01-30T05:32:19;19.85;;;10.93;;
41061;SDS011;26812;42.662;23.352;2023-01-30T05:34:45;22.27;;;11.48;;
41061;SDS011;26812;42.662;23.352;2023-01-30T05:37:13;15.75;;;10.98;;
41061;SDS011;26812;42.662;23.352;2023-01-30T05:39:38;17.73;;;10.13;;
41061;SDS011;26812;42.662;23.352;2023-01-30T05:42:05;17.80;;;10.10;;
41061;SDS011;26812;42.662;23.352;2023-01-30T05:44:41;17.70;;;9.98;;
41061;SDS011;26812;42.662;23.352;2023-01-30T05:47:49;20.02;;;11.18;;
41061;SDS011;26812;42.662;23.352;2023-01-30T05:50:15;20.25;;;11.73;;
41061;SDS011;26812;42.662;23.352;2023-01-30T05:52:45;18.95;;;11.95;;
41061;SDS011;26812;42.662;23.352;2023-01-30T05:55:15;18.42;;;10.68;;
41061;SDS011;26812;42.662;23.352;2023-01-30T05:57:44;20.88;;;11.80;;
41061;SDS011;26812;42.662;23.352;2023-01-30T06:00:34;21.65;;;12.70;;
41061;SDS011;26812;42.662;23.352;2023-01-30T06:02:59;25.35;;;13.27;;
41061;SDS011;26812;42.662;23.352;2023-01-30T06:05:25;21.50;;;11.43;;
41061;SDS011;26812;42.662;23.352;2023-01-30T06:07:50;20.15;;;10.57;;
41061;SDS011;26812;42.662;23.352;2023-01-30T06:10:16;20.85;;;12.73;;
41061;SDS011;26812;42.662;23.352;2023-01-30T06:12:41;23.27;;;13.43;;
41061;SDS011;26812;42.662;23.352;2023-01-30T06:15:07;25.33;;;13.25;;
41061;SDS011;26812;42.662;23.352;2023-01-30T06:17:40;21.45;;;12.65;;
41061;SDS011;26812;42.662;23.352;2023-01-30T06:20:07;23.95;;;13.23;;
41061;SDS011;26812;42.662;23.352;2023-01-30T06:22:33;22.50;;;13.55;;
41061;SDS011;26812;42.662;23.352;2023-01-30T06:24:59;21.23;;;12.60;;
41061;SDS011;26812;42.662;23.352;2023-01-30T06:27:24;27.65;;;14.45;;
41061;SDS011;26812;42.662;23.352;2023-01-30T06:29:49;26.27;;;13.32;;
41061;SDS011;26812;42.662;23.352;2023-01-30T06:32:15;29.13;;;14.18;;
41061;SDS011;26812;42.662;23.352;2023-01-30T06:34:40;23.60;;;13.20;;
41061;SDS011;26812;42.662;23.352;2023-01-30T06:37:06;27.88;;;13.40;;
41061;SDS011;26812;42.662;23.352;2023-01-30T06:39:31;24.25;;;14.38;;
41061;SDS011;26812;42.662;23.352;2023-01-30T06:41:56;24.77;;;13.52;;
41061;SDS011;26812;42.662;23.352;2023-01-30T06:44:22;25.58;;;14.07;;
41061;SDS011;26812;42.662;23.352;2023-01-30T06:46:47;27.73;;;12.55;;
41061;SDS011;26812;42.662;23.352;2023-01-30T06:49:13;27.92;;;14.85;;
41061;SDS011;26812;42.662;23.352;2023-01-30T06:51:38;23.45;;;14.73;;
41061;SDS011;26812;42.662;23.352;2023-01-30T06:54:03;24.15;;;12.55;;
41061;SDS011;26812;42.662;23.352;2023-01-30T06:56:36;23.63;;;14.05;;
41061;SDS011;26812;42.662;23.352;2023-01-30T06:59:01;25.80;;;13.32;;
41061;SDS011;26812;42.662;23.352;2023-01-30T07:01:36;28.80;;;14.75;;
41061;SDS011;26812;42.662;23.352;2023-01-30T07:04:17;26.85;;;13.07;;
41061;SDS011;26812;42.662;23.352;2023-01-30T07:06:43;27.85;;;14.82;;
41061;SDS011;26812;42.662;23.352;2023-01-30T07:09:08;27.13;;;14.50;;
41061;SDS011;26812;42.662;23.352;2023-01-30T07:11:34;24.73;;;13.10;;
41061;SDS011;26812;42.662;23.352;2023-01-30T07:14:00;22.48;;;13.18;;
41061;SDS011;26812;42.662;23.352;2023-01-30T07:16:25;24.58;;;12.68;;
41061;SDS011;26812;42.662;23.352;2023-01-30T07:18:56;22.73;;;12.77;;
41061;SDS011;26812;42.662;23.352;2023-01-30T07:21:23;22.48;;;13.15;;
41061;SDS011;26812;42.662;23.352;2023-01-30T07:23:49;28.50;;;14.82;;
41061;SDS011;26812;42.662;23.352;2023-01-30T07:26:14;22.20;;;12.45;;
41061;SDS011;26812;42.662;23.352;2023-01-30T07:28:40;26.45;;;14.52;;
41061;SDS011;26812;42.662;23.352;2023-01-30T07:31:05;26.55;;;13.60;;
41061;SDS011;26812;42.662;23.352;2023-01-30T07:33:31;28.83;;;14.48;;
41061;SDS011;26812;42.662;23.352;2023-01-30T07:35:56;23.75;;;13.73;;
41061;SDS011;26812;42.662;23.352;2023-01-30T07:38:21;26.98;;;13.90;;
41061;SDS011;26812;42.662;23.352;2023-01-30T07:40:47;17.05;;;11.82;;
41061;SDS011;26812;42.662;23.352;2023-01-30T07:43:12;22.10;;;12.20;;
41061;SDS011;26812;42.662;23.352;2023-01-30T07:48:13;22.77;;;12.30;;
41061;SDS011;26812;42.662;23.352;2023-01-30T07:50:40;23.13;;;13.55;;
41061;SDS011;26812;42.662;23.352;2023-01-30T07:53:06;24.65;;;12.13;;
41061;SDS011;26812;42.662;23.352;2023-01-30T07:55:33;31.80;;;15.77;;
41061;SDS011;26812;42.662;23.352;2023-01-30T07:57:59;23.38;;;12.38;;
41061;SDS011;26812;42.662;23.352;2023-01-30T08:00:25;23.27;;;14.13;;
41061;SDS011;26812;42.662;23.352;2023-01-30T08:02:51;26.45;;;13.57;;
41061;SDS011;26812;42.662;23.352;2023-01-30T08:05:21;23.88;;;12.75;;
41061;SDS011;26812;42.662;23.352;2023-01-30T08:08:00;23.70;;;12.88;;
41061;SDS011;26812;42.662;23.352;2023-01-30T08:10:25;20.25;;;11.85;;
41061;SDS011;26812;42.662;23.352;2023-01-30T08:12:54;24.70;;;12.98;;
41061;SDS011;26812;42.662;23.352;2023-01-30T08:15:19;22.23;;;12.57;;
41061;SDS011;26812;42.662;23.352;2023-01-30T08:17:51;21.67;;;11.85;;
41061;SDS011;26812;42.662;23.352;2023-01-30T08:20:19;23.02;;;12.07;;
41061;SDS011;26812;42.662;23.352;2023-01-30T08:22:44;24.25;;;11.77;;
41061;SDS011;26812;42.662;23.352;2023-01-30T08:25:09;21.30;;;12.13;;
41061;SDS011;26812;42.662;23.352;2023-01-30T08:27:35;24.75;;;12.65;;
41061;SDS011;26812;42.662;23.352;2023-01-30T08:30:00;18.45;;;10.55;;
41061;SDS011;26812;42.662;23.352;2023-01-30T08:32:26;26.48;;;13.00;;
41061;SDS011;26812;42.662;23.352;2023-01-30T08:34:51;24.90;;;11.60;;
41061;SDS011;26812;42.662;23.352;2023-01-30T08:37:16;25.30;;;12.55;;
41061;SDS011;26812;42.662;23.352;2023-01-30T08:39:42;23.35;;;10.98;;
41061;SDS011;26812;42.662;23.352;2023-01-30T08:42:07;20.63;;;12.60;;
41061;SDS011;26812;42.662;23.352;2023-01-30T08:44:33;18.55;;;12.30;;
41061;SDS011;26812;42.662;23.352;2023-01-30T08:46:58;19.48;;;11.27;;
41061;SDS011;26812;42.662;23.352;2023-01-30T08:49:24;22.13;;;11.73;;
41061;SDS011;26812;42.662;23.352;2023-01-30T08:51:49;17.35;;;10.95;;
41061;SDS011;26812;42.662;23.352;2023-01-30T08:54:14;20.70;;;10.70;;
41061;SDS011;26812;42.662;23.352;2023-01-30T08:56:40;20.77;;;10.88;;
41061;SDS011;26812;42.662;23.352;2023-01-30T08:59:05;20.75;;;11.48;;
41061;SDS011;26812;42.662;23.352;2023-01-30T09:01:38;21.17;;;10.68;;
41061;SDS011;26812;42.662;23.352;2023-01-30T09:04:03;17.15;;;10.80;;
41061;SDS011;26812;42.662;23.352;2023-01-30T09:06:29;17.33;;;9.55;;
41061;SDS011;26812;42.662;23.352;2023-01-30T09:08:55;16.58;;;9.52;;
41061;SDS011;26812;42.662;23.352;2023-01-30T09:11:20;16.33;;;10.35;;
41061;SDS011;26812;42.662;23.352;2023-01-30T09:13:46;15.85;;;10.13;;
41061;SDS011;26812;42.662;23.352;2023-01-30T09:16:11;18.60;;;9.77;;
41061;SDS011;26812;42.662;23.352;2023-01-30T09:18:40;13.65;;;9.00;;
41061;SDS011;26812;42.662;23.352;2023-01-30T09:21:07;15.18;;;8.70;;
41061;SDS011;26812;42.662;23.352;2023-01-30T09:23:34;18.23;;;9.63;;
41061;SDS011;26812;42.662;23.352;2023-01-30T09:25:59;17.98;;;10.98;;
41061;SDS011;26812;42.662;23.352;2023-01-30T09:28:26;16.42;;;9.57;;
41061;SDS011;26812;42.662;23.352;2023-01-30T09:30:51;16.63;;;11.15;;
41061;SDS011;26812;42.662;23.352;2023-01-30T09:33:17;13.65;;;8.25;;
41061;SDS011;26812;42.662;23.352;2023-01-30T09:35:47;16.95;;;10.40;;
41061;SDS011;26812;42.662;23.352;2023-01-30T09:38:14;15.38;;;9.18;;
41061;SDS011;26812;42.662;23.352;2023-01-30T09:40:48;18.27;;;8.85;;
41061;SDS011;26812;42.662;23.352;2023-01-30T09:43:30;19.73;;;9.68;;
41061;SDS011;26812;42.662;23.352;2023-01-30T09:46:17;16.60;;;8.95;;
41061;SDS011;26812;42.662;23.352;2023-01-30T09:51:54;15.30;;;8.70;;
41061;SDS011;26812;42.662;23.352;2023-01-30T09:54:38;17.33;;;9.43;;
41061;SDS011;26812;42.662;23.352;2023-01-30T09:57:19;14.73;;;9.05;;
41061;SDS011;26812;42.662;23.352;2023-01-30T10:02:28;13.43;;;8.45;;
41061;SDS011;26812;42.662;23.352;2023-01-30T10:05:02;15.75;;;8.93;;
41061;SDS011;26812;42.662;23.352;2023-01-30T10:10:19;18.58;;;10.52;;
41061;SDS011;26812;42.662;23.352;2023-01-30T10:18:27;17.48;;;8.57;;
41061;SDS011;26812;42.662;23.352;2023-01-30T10:26:10;15.02;;;8.85;;
41061;SDS011;26812;42.662;23.352;2023-01-30T10:28:45;14.15;;;9.18;;
41061;SDS011;26812;42.662;23.352;2023-01-30T10:31:20;14.57;;;9.10;;
41061;SDS011;26812;42.662;23.352;2023-01-30T10:33:54;14.68;;;8.48;;
41061;SDS011;26812;42.662;23.352;2023-01-30T10:36:31;18.17;;;10.07;;
41061;SDS011;26812;42.662;23.352;2023-01-30T10:39:19;16.35;;;9.13;;
41061;SDS011;26812;42.662;23.352;2023-01-30T10:42:09;20.70;;;9.43;;
41061;SDS011;26812;42.662;23.352;2023-01-30T10:44:37;15.90;;;9.57;;
41061;SDS011;26812;42.662;23.352;2023-01-30T10:49:40;16.77;;;9.52;;
41061;SDS011;26812;42.662;23.352;2023-01-30T10:52:19;16.67;;;8.32;;
41061;SDS011;26812;42.662;23.352;2023-01-30T10:59:57;16.05;;;10.65;;
41061;SDS011;26812;42.662;23.352;2023-01-30T11:02:34;20.05;;;9.73;;
41061;SDS011;26812;42.662;23.352;2023-01-30T11:05:15;19.13;;;10.93;;
41061;SDS011;26812;42.662;23.352;2023-01-30T11:07:45;18.02;;;10.43;;
41061;SDS011;26812;42.662;23.352;2023-01-30T11:10:23;17.35;;;9.27;;
41061;SDS011;26812;42.662;23.352;2023-01-30T11:13:07;14.18;;;8.88;;
41061;SDS011;26812;42.662;23.352;2023-01-30T11:15:45;16.10;;;9.25;;
41061;SDS011;26812;42.662;23.352;2023-01-30T11:18:14;13.75;;;9.18;;
41061;SDS011;26812;42.662;23.352;2023-01-30T11:21:04;16.73;;;9.60;;
41061;SDS011;26812;42.662;23.352;2023-01-30T11:29:25;15.85;;;8.93;;
41061;SDS011;26812;42.662;23.352;2023-01-30T11:31:52;15.88;;;9.35;;
41061;SDS011;26812;42.662;23.352;2023-01-30T11:34:19;14.13;;;8.23;;
41061;SDS011;26812;42.662;23.352;2023-01-30T11:36:46;17.55;;;9.85;;
41061;SDS011;26812;42.662;23.352;2023-01-30T11:41:42;14.82;;;9.43;;
41061;SDS011;26812;42.662;23.352;2023-01-30T11:44:27;16.67;;;10.20;;
41061;SDS011;26812;42.662;23.352;2023-01-30T11:46:58;21.23;;;11.70;;
41061;SDS011;26812;42.662;23.352;2023-01-30T11:49:27;15.70;;;10.02;;
41061;SDS011;26812;42.662;23.352;2023-01-30T11:51:58;17.98;;;10.05;;
41061;SDS011;26812;42.662;23.352;2023-01-30T11:54:27;15.20;;;10.00;;
41061;SDS011;26812;42.662;23.352;2023-01-30T11:57:02;15.93;;;10.02;;
41061;SDS011;26812;42.662;23.352;2023-01-30T11:59:34;15.75;;;10.00;;
41061;SDS011;26812;42.662;23.352;2023-01-30T12:05:30;14.75;;;8.93;;
41061;SDS011;26812;42.662;23.352;2023-01-30T12:10:45;17.38;;;10.85;;
41061;SDS011;26812;42.662;23.352;2023-01-30T12:16:18;15.15;;;9.60;;
41061;SDS011;26812;42.662;23.352;2023-01-30T12:18:58;14.75;;;10.52;;
41061;SDS011;26812;42.662;23.352;2023-01-30T12:21:45;14.38;;;9.25;;
41061;SDS011;26812;42.662;23.352;2023-01-30T12:24:41;14.18;;;9.18;;
41061;SDS011;26812;42.662;23.352;2023-01-30T12:33:04;19.58;;;10.77;;
41061;SDS011;26812;42.662;23.352;2023-01-30T12:35:53;17.92;;;10.48;;
41061;SDS011;26812;42.662;23.352;2023-01-30T12:47:02;14.63;;;10.07;;
41061;SDS011;26812;42.662;23.352;2023-01-30T12:52:12;18.70;;;11.27;;
41061;SDS011;26812;42.662;23.352;2023-01-30T12:55:05;16.05;;;10.55;;
41061;SDS011;26812;42.662;23.352;2023-01-30T12:57:43;15.48;;;10.25;;
41061;SDS011;26812;42.662;23.352;2023-01-30T13:06:16;15.75;;;9.95;;
41061;SDS011;26812;42.662;23.352;2023-01-30T13:19:51;14.95;;;9.27;;
41061;SDS011;26812;42.662;23.352;2023-01-30T13:25:02;20.10;;;11.60;;
41061;SDS011;26812;42.662;23.352;2023-01-30T13:27:36;16.50;;;10.48;;
41061;SDS011;26812;42.662;23.352;2023-01-30T13:30:05;16.10;;;9.40;;
41061;SDS011;26812;42.662;23.352;2023-01-30T13:32:36;17.25;;;9.95;;
41061;SDS011;26812;42.662;23.352;2023-01-30T13:35:14;15.88;;;9.27;;
41061;SDS011;26812;42.662;23.352;2023-01-30T13:37:44;17.85;;;10.52;;
41061;SDS011;26812;42.662;23.352;2023-01-30T13:40:14;21.52;;;10.52;;
41061;SDS011;26812;42.662;23.352;2023-01-30T13:45:15;14.82;;;8.88;;
41061;SDS011;26812;42.662;23.352;2023-01-30T13:53:12;15.75;;;9.90;;
41061;SDS011;26812;42.662;23.352;2023-01-30T13:56:10;17.88;;;9.98;;
41061;SDS011;26812;42.662;23.352;2023-01-30T14:01:19;16.90;;;8.93;;
41061;SDS011;26812;42.662;23.352;2023-01-30T14:03:47;15.50;;;10.32;;
41061;SDS011;26812;42.662;23.352;2023-01-30T14:06:13;16.23;;;10.35;;
41061;SDS011;26812;42.662;23.352;2023-01-30T14:08:57;16.35;;;10.82;;
41061;SDS011;26812;42.662;23.352;2023-01-30T14:14:40;18.23;;;11.60;;
41061;SDS011;26812;42.662;23.352;2023-01-30T14:17:07;17.20;;;10.70;;
41061;SDS011;26812;42.662;23.352;2023-01-30T14:19:39;16.67;;;10.52;;
41061;SDS011;26812;42.662;23.352;2023-01-30T14:22:18;18.80;;;11.35;;
41061;SDS011;26812;42.662;23.352;2023-01-30T14:33:01;20.50;;;10.73;;
41061;SDS011;26812;42.662;23.352;2023-01-30T14:35:29;18.92;;;11.60;;
41061;SDS011;26812;42.662;23.352;2023-01-30T14:38:08;19.75;;;10.82;;
41061;SDS011;26812;42.662;23.352;2023-01-30T14:40:36;23.55;;;12.45;;
41061;SDS011;26812;42.662;23.352;2023-01-30T14:53:46;18.75;;;10.98;;
41061;SDS011;26812;42.662;23.352;2023-01-30T14:56:14;19.58;;;12.63;;
41061;SDS011;26812;42.662;23.352;2023-01-30T14:58:51;21.85;;;11.57;;
41061;SDS011;26812;42.662;23.352;2023-01-30T15:01:23;22.08;;;11.52;;
41061;SDS011;26812;42.662;23.352;2023-01-30T15:03:49;24.27;;;12.07;;
41061;SDS011;26812;42.662;23.352;2023-01-30T15:06:15;25.70;;;12.52;;
41061;SDS011;26812;42.662;23.352;2023-01-30T15:08:43;20.83;;;11.90;;
41061;SDS011;26812;42.662;23.352;2023-01-30T15:16:57;20.92;;;10.88;;
41061;SDS011;26812;42.662;23.352;2023-01-30T15:33:14;19.60;;;11.55;;
41061;SDS011;26812;42.662;23.352;2023-01-30T15:35:44;21.83;;;11.90;;
41061;SDS011;26812;42.662;23.352;2023-01-30T15:38:29;26.42;;;11.90;;
41061;SDS011;26812;42.662;23.352;2023-01-30T15:41:02;19.65;;;10.88;;
41061;SDS011;26812;42.662;23.352;2023-01-30T15:51:23;24.90;;;12.27;;
41061;SDS011;26812;42.662;23.352;2023-01-30T15:53:51;25.90;;;12.98;;
41061;SDS011;26812;42.662;23.352;2023-01-30T15:56:20;24.02;;;13.68;;
41061;SDS011;26812;42.662;23.352;2023-01-30T15:58:49;23.48;;;12.90;;
41061;SDS011;26812;42.662;23.352;2023-01-30T16:01:16;24.05;;;11.85;;
41061;SDS011;26812;42.662;23.352;2023-01-30T16:03:45;22.45;;;11.65;;
41061;SDS011;26812;42.662;23.352;2023-01-30T16:11:37;20.92;;;11.38;;
41061;SDS011;26812;42.662;23.352;2023-01-30T16:14:04;19.35;;;12.48;;
41061;SDS011;26812;42.662;23.352;2023-01-30T16:16:35;21.70;;;12.43;;
41061;SDS011;26812;42.662;23.352;2023-01-30T16:19:01;25.45;;;13.77;;
41061;SDS011;26812;42.662;23.352;2023-01-30T16:21:32;26.63;;;12.85;;
41061;SDS011;26812;42.662;23.352;2023-01-30T16:27:01;23.90;;;12.38;;
41061;SDS011;26812;42.662;23.352;2023-01-30T16:29:31;23.73;;;13.60;;
41061;SDS011;26812;42.662;23.352;2023-01-30T16:32:00;21.80;;;11.65;;
41061;SDS011;26812;42.662;23.352;2023-01-30T16:34:29;22.05;;;12.82;;
41061;SDS011;26812;42.662;23.352;2023-01-30T16:37:04;22.88;;;13.43;;
41061;SDS011;26812;42.662;23.352;2023-01-30T16:39:42;23.03;;;12.43;;
41061;SDS011;26812;42.662;23.352;2023-01-30T16:42:21;26.73;;;14.00;;
41061;SDS011;26812;42.662;23.352;2023-01-30T16:44:49;20.30;;;11.68;;
41061;SDS011;26812;42.662;23.352;2023-01-30T16:47:22;20.92;;;12.15;;
41061;SDS011;26812;42.662;23.352;2023-01-30T16:49:52;22.02;;;11.95;;
41061;SDS011;26812;42.662;23.352;2023-01-30T16:52:33;27.88;;;12.75;;
41061;SDS011;26812;42.662;23.352;2023-01-30T16:55:04;23.30;;;13.65;;
41061;SDS011;26812;42.662;23.352;2023-01-30T17:00:11;21.77;;;12.82;;
41061;SDS011;26812;42.662;23.352;2023-01-30T17:02:49;19.60;;;11.52;;
41061;SDS011;26812;42.662;23.352;2023-01-30T17:05:19;19.48;;;12.23;;
41061;SDS011;26812;42.662;23.352;2023-01-30T17:07:48;21.30;;;12.93;;
41061;SDS011;26812;42.662;23.352;2023-01-30T17:13:30;20.58;;;11.75;;
41061;SDS011;26812;42.662;23.352;2023-01-30T17:18:46;21.02;;;12.30;;
41061;SDS011;26812;42.662;23.352;2023-01-30T17:21:12;23.33;;;12.65;;
41061;SDS011;26812;42.662;23.352;2023-01-30T17:23:39;22.70;;;12.45;;
41061;SDS011;26812;42.662;23.352;2023-01-30T17:26:11;21.30;;;12.10;;
41061;SDS011;26812;42.662;23.352;2023-01-30T17:28:39;20.90;;;10.63;;
41061;SDS011;26812;42.662;23.352;2023-01-30T17:31:08;23.40;;;12.23;;
41061;SDS011;26812;42.662;23.352;2023-01-30T17:33:35;23.15;;;12.80;;
41061;SDS011;26812;42.662;23.352;2023-01-30T17:36:01;23.83;;;12.80;;
41061;SDS011;26812;42.662;23.352;2023-01-30T17:38:29;25.25;;;12.40;;
41061;SDS011;26812;42.662;23.352;2023-01-30T17:40:55;27.02;;;13.80;;
41061;SDS011;26812;42.662;23.352;2023-01-30T17:43:20;16.30;;;9.38;;